createdAt,value
2022-08-09T00:00:04.650Z,82.90
2022-08-09T00:10:00.109Z,93.20
2022-08-09T00:20:00.145Z,36.30
2022-08-09T00:30:16.639Z,36.50
2022-08-09T00:40:10.514Z,37.70
2022-08-09T00:50:00.134Z,40.10
2022-08-09T01:00:00.710Z,37.70
2022-08-09T01:10:01.673Z,54.50
2022-08-09T01:20:02.027Z,93.30
2022-08-09T01:30:00.103Z,60.30
2022-08-09T01:40:00.121Z,61.50
2022-08-09T01:50:00.131Z,78.70
2022-08-09T02:00:09.161Z,78.60
2022-08-09T02:10:01.299Z,81.50
2022-08-09T02:20:01.307Z,72.70
2022-08-09T02:30:01.548Z,75.60
2022-08-09T02:40:03.087Z,22.90
2022-08-09T02:50:01.435Z,17.40
2022-08-09T03:00:20.523Z,21.60
2022-08-09T03:10:00.578Z,16.00
2022-08-09T03:20:02.870Z,16.10
2022-08-09T03:30:01.159Z,16.80
2022-08-09T03:40:00.240Z,17.60
2022-08-09T03:50:00.131Z,17.60
2022-08-09T04:00:00.664Z,17.90
2022-08-09T04:10:00.145Z,18.00
2022-08-09T04:20:02.472Z,15.00
2022-08-09T04:30:00.094Z,21.90
2022-08-09T04:40:00.129Z,19.70
2022-08-09T04:50:00.133Z,20.30
2022-08-09T05:00:00.128Z,16.40
2022-08-09T05:10:01.195Z,14.20
2022-08-09T05:20:00.125Z,14.00
2022-08-09T05:30:00.094Z,17.60
2022-08-09T05:40:00.241Z,18.50
2022-08-09T05:50:24.669Z,22.00
2022-08-09T06:00:00.148Z,20.90
2022-08-09T06:10:01.880Z,26.80
2022-08-09T06:20:00.144Z,71.60
2022-08-09T06:30:04.770Z,104.60
2022-08-09T06:40:01.894Z,103.70
2022-08-09T06:50:12.437Z,57.30
2022-08-09T07:00:48.344Z,87.80
2022-08-09T07:10:12.771Z,100.20
2022-08-09T07:20:00.197Z,103.00
2022-08-09T07:30:00.201Z,67.70
2022-08-09T07:40:00.179Z,58.40
2022-08-09T07:50:05.758Z,62.20
2022-08-09T08:00:03.326Z,90.70
2022-08-09T08:10:07.540Z,87.70
2022-08-09T08:20:00.114Z,94.10
2022-08-09T08:30:00.124Z,68.70
2022-08-09T08:40:00.237Z,50.80
2022-08-09T08:50:02.587Z,55.00
2022-08-09T09:00:00.138Z,42.60
2022-08-09T09:10:02.578Z,46.10
2022-08-09T09:20:00.154Z,40.50
2022-08-09T09:30:08.669Z,34.90
2022-08-09T09:40:00.186Z,38.90
2022-08-09T09:50:07.735Z,65.50
2022-08-09T10:00:00.108Z,54.40
2022-08-09T10:10:03.023Z,54.40
2022-08-09T10:20:00.376Z,77.10
2022-08-09T10:30:29.888Z,65.70
2022-08-09T10:40:00.220Z,69.70
2022-08-09T10:50:00.154Z,72.50
2022-08-09T11:00:01.747Z,95.90
2022-08-09T11:10:00.136Z,95.90
2022-08-09T11:20:07.559Z,228.50
2022-08-09T11:30:00.681Z,189.50
2022-08-09T11:40:00.248Z,259.80
2022-08-09T11:50:52.651Z,840.20
2022-08-09T12:00:00.109Z,877.70
2022-08-09T12:10:00.139Z,835.20
2022-08-09T12:20:01.467Z,721.00
2022-08-09T12:30:04.502Z,790.00
2022-08-09T12:40:00.144Z,822.50
2022-08-09T12:50:00.183Z,851.60
2022-08-09T13:00:03.581Z,828.20
2022-08-09T13:10:00.180Z,470.20
2022-08-09T13:20:07.870Z,828.00
2022-08-09T13:30:03.394Z,824.10
2022-08-09T13:41:22.131Z,876.10
2022-08-09T13:50:00.839Z,882.30
2022-08-09T14:00:00.121Z,876.90
2022-08-09T14:10:00.105Z,857.00
2022-08-09T14:20:00.118Z,801.60
2022-08-09T14:30:18.804Z,806.20
2022-08-09T14:40:00.295Z,795.40
2022-08-09T14:50:01.751Z,771.20
2022-08-09T15:00:00.074Z,782.00
2022-08-09T15:10:04.196Z,769.80
2022-08-09T15:20:02.571Z,760.10
2022-08-09T15:30:47.915Z,815.60
2022-08-09T15:40:00.177Z,775.10
2022-08-09T15:50:00.823Z,765.30
2022-08-09T16:00:00.143Z,664.40
2022-08-09T16:10:05.050Z,656.90
2022-08-09T16:20:04.305Z,673.00
2022-08-09T16:30:01.219Z,672.80
2022-08-09T16:40:05.120Z,660.50
2022-08-09T16:50:30.867Z,648.60
2022-08-09T17:00:00.124Z,658.90
2022-08-09T17:10:02.069Z,668.20
2022-08-09T17:20:11.222Z,662.30
2022-08-09T17:30:00.109Z,649.40
2022-08-09T17:40:00.217Z,664.60
2022-08-09T17:50:07.600Z,742.00
2022-08-09T18:00:05.286Z,141.70
2022-08-09T18:10:04.051Z,140.10
2022-08-09T18:20:57.731Z,118.80
2022-08-09T18:30:34.277Z,217.80
2022-08-09T18:40:00.147Z,168.40
2022-08-09T18:50:03.069Z,266.80
2022-08-09T19:00:03.821Z,221.80
2022-08-09T19:10:13.667Z,234.10
2022-08-09T19:20:00.949Z,166.10
2022-08-09T19:30:21.789Z,180.20
2022-08-09T19:40:04.612Z,192.10
2022-08-09T19:50:05.735Z,197.50
2022-08-09T20:00:05.817Z,143.10
2022-08-09T20:10:07.135Z,150.20
2022-08-09T20:20:00.115Z,143.20
2022-08-09T20:30:00.115Z,107.10
2022-08-09T20:40:14.619Z,128.10
2022-08-09T20:50:00.157Z,82.10
2022-08-09T21:00:21.032Z,186.40
2022-08-09T21:10:01.193Z,142.40
2022-08-09T21:20:02.582Z,84.30
2022-08-09T21:30:01.265Z,69.40
2022-08-09T21:40:00.279Z,79.00
2022-08-09T21:50:01.276Z,66.20
2022-08-09T22:00:00.106Z,68.10
2022-08-09T22:10:01.376Z,57.10
2022-08-09T22:20:00.722Z,64.20
2022-08-09T22:30:00.142Z,69.10
2022-08-09T22:40:00.252Z,74.10
2022-08-09T22:50:00.123Z,62.40
2022-08-09T23:00:00.110Z,64.50
2022-08-09T23:10:00.115Z,65.90
2022-08-09T23:20:01.289Z,45.20
2022-08-09T23:30:00.157Z,70.90
2022-08-09T23:40:00.141Z,51.30
2022-08-09T23:50:00.150Z,55.90
